Time;durP1;ratioP1;P1;durP2;ratioP2;P2;SDS_P1;SDS_P2;PMS_P1;PMS_P2;Temp;Humidity;BMP_temperature;BMP_pressure;BME280_temperature;BME280_humidity;BME280_pressure;Samples;Min_cycle;Max_cycle;Signal;HPM_P1;HPM_P2
2021/09/16 00:00:59;;;;;;;20.48;14.23;;;;;;;20.50;58.37;99933.09;5113963;28;20048;-77
2021/09/16 00:03:30;;;;;;;20.67;15.07;;;;;;;20.40;58.41;99926.91;5114198;28;20046;-79
2021/09/16 00:05:59;;;;;;;18.33;14.35;;;;;;;20.36;58.87;99922.81;5095654;28;20047;-79
2021/09/16 00:08:27;;;;;;;18.98;13.77;;;;;;;20.41;58.53;99928.63;5113995;28;20048;-80
2021/09/16 00:10:56;;;;;;;21.52;14.00;;;;;;;20.28;58.76;99923.66;5114109;28;20045;-78
2021/09/16 00:13:25;;;;;;;20.70;13.40;;;;;;;20.29;58.55;99929.94;5113785;28;20046;-78
2021/09/16 00:15:54;;;;;;;13.88;9.93;;;;;;;20.15;58.71;99922.41;5113748;28;20044;-77
2021/09/16 00:18:23;;;;;;;16.55;8.43;;;;;;;20.11;58.92;99923.75;5113445;28;20098;-79
2021/09/16 00:20:54;;;;;;;14.93;8.38;;;;;;;20.14;59.13;99918.84;5113792;28;20036;-78
2021/09/16 00:23:25;;;;;;;10.40;7.75;;;;;;;20.00;59.24;99914.91;5113759;28;20067;-77
2021/09/16 00:25:55;;;;;;;11.50;7.32;;;;;;;20.01;59.02;99902.22;5113495;28;20133;-77
2021/09/16 00:28:24;;;;;;;11.73;7.85;;;;;;;19.94;59.25;99904.69;5113274;28;20043;-76
2021/09/16 00:30:53;;;;;;;12.93;8.27;;;;;;;19.90;59.49;99910.59;5113908;28;20093;-77
2021/09/16 00:33:21;;;;;;;15.70;9.70;;;;;;;19.86;60.42;99918.19;5113244;28;20074;-77
2021/09/16 00:35:52;;;;;;;14.75;10.85;;;;;;;19.75;60.32;99917.59;5113444;28;20096;-76
2021/09/16 00:38:20;;;;;;;15.13;10.43;;;;;;;19.73;60.49;99918.63;5113093;28;20047;-76
2021/09/16 00:40:49;;;;;;;15.75;12.50;;;;;;;19.76;60.52;99917.44;5113513;28;20071;-77
2021/09/16 00:43:17;;;;;;;17.38;11.85;;;;;;;19.73;60.29;99924.03;5113105;28;20112;-77
2021/09/16 00:45:50;;;;;;;19.33;13.77;;;;;;;19.82;60.25;99922.22;5113543;28;20131;-79
2021/09/16 00:48:18;;;;;;;18.77;14.27;;;;;;;19.81;60.34;99925.94;5112992;28;20035;-78
2021/09/16 00:50:46;;;;;;;17.98;14.95;;;;;;;19.73;60.94;99929.44;5113245;28;20044;-78
2021/09/16 00:53:19;;;;;;;22.45;14.63;;;;;;;19.69;61.16;99916.41;5113025;28;20058;-78
2021/09/16 00:55:49;;;;;;;;;;;;;;;19.65;61.32;99920.41;5113735;28;20501;-78
2021/09/16 00:58:18;;;;;;;22.80;16.02;;;;;;;19.74;60.73;99919.47;5112948;28;19919;-78
2021/09/16 01:00:47;;;;;;;20.83;15.88;;;;;;;19.76;61.02;99917.44;5113342;28;20075;-77
2021/09/16 01:03:16;;;;;;;20.73;15.57;;;;;;;19.76;60.88;99928.25;5116206;28;20406;-77
2021/09/16 01:05:45;;;;;;;22.15;15.50;;;;;;;19.71;61.33;99925.19;5117558;28;20043;-75
2021/09/16 01:08:14;;;;;;;18.58;14.75;;;;;;;19.70;61.28;99929.75;5117179;28;20046;-75
2021/09/16 01:10:49;;;;;;;22.63;15.20;;;;;;;19.69;61.28;99925.38;5117702;28;20135;-79
2021/09/16 01:13:18;;;;;;;21.00;14.77;;;;;;;19.71;61.13;99919.78;5117115;28;20512;-77
2021/09/16 01:15:49;;;;;;;18.50;14.23;;;;;;;19.69;61.13;99922.66;5117287;28;20043;-77
2021/09/16 01:18:18;;;;;;;22.33;14.32;;;;;;;19.70;61.22;99923.50;5098814;28;20051;-77
2021/09/16 01:20:46;;;;;;;20.48;14.95;;;;;;;19.70;61.73;99923.50;5117233;28;20046;-77
2021/09/16 01:23:16;;;;;;;21.23;14.88;;;;;;;19.67;62.19;99923.81;5116796;28;20046;-77
2021/09/16 01:25:45;;;;;;;21.60;14.52;;;;;;;19.70;61.77;99927.06;5117266;28;20047;-77
2021/09/16 01:28:14;;;;;;;17.73;13.50;;;;;;;19.73;62.05;99928.59;5116793;28;20052;-76
2021/09/16 01:30:44;;;;;;;17.55;12.75;;;;;;;19.67;62.24;99929.22;5116955;28;20051;-77
2021/09/16 01:33:13;;;;;;;20.90;14.02;;;;;;;19.66;62.06;99922.09;5098894;28;20048;-76
2021/09/16 01:35:48;;;;;;;19.65;15.57;;;;;;;19.68;61.06;99917.38;5116895;28;20044;-78
2021/09/16 01:38:23;;;;;;;19.90;14.20;;;;;;;19.78;60.63;99923.53;5116573;28;20054;-78
2021/09/16 01:40:52;;;;;;;18.27;13.55;;;;;;;19.77;60.88;99919.13;5116611;28;20039;-75
2021/09/16 01:43:20;;;;;;;14.50;11.27;;;;;;;19.75;60.32;99915.75;5097957;28;20056;-76
2021/09/16 01:45:48;;;;;;;15.13;11.07;;;;;;;19.75;61.15;99921.16;5116736;28;20101;-76
2021/09/16 01:48:16;;;;;;;16.98;12.35;;;;;;;19.86;60.68;99915.47;5116605;28;20040;-75
2021/09/16 01:50:46;;;;;;;17.05;12.38;;;;;;;19.87;60.59;99919.88;5116472;28;20083;-74
2021/09/16 01:53:17;;;;;;;14.65;9.75;;;;;;;19.85;60.17;99916.47;5116331;28;20452;-75
2021/09/16 01:55:46;;;;;;;14.50;9.70;;;;;;;19.89;59.94;99909.75;5116825;28;20052;-74
2021/09/16 01:58:14;;;;;;;17.38;9.55;;;;;;;19.83;59.85;99909.53;5116394;28;20047;-75
2021/09/16 02:00:43;;;;;;;13.55;8.45;;;;;;;19.85;60.03;99905.66;5116952;28;20086;-75
2021/09/16 02:03:11;;;;;;;12.60;8.82;;;;;;;19.90;59.78;99902.50;5116157;28;20043;-74
2021/09/16 02:05:40;;;;;;;12.32;9.40;;;;;;;19.85;60.03;99905.66;5116244;28;20478;-74
2021/09/16 02:08:08;;;;;;;13.18;8.85;;;;;;;19.96;59.83;99905.38;5116203;28;20050;-75
2021/09/16 02:10:36;;;;;;;12.40;9.07;;;;;;;19.82;60.22;99905.13;5116242;28;20046;-75
2021/09/16 02:13:06;;;;;;;12.65;9.20;;;;;;;19.81;59.81;99896.19;5097815;28;20047;-74
2021/09/16 02:15:36;;;;;;;13.45;8.82;;;;;;;19.92;59.50;99895.06;5097997;28;20074;-75
2021/09/16 02:18:07;;;;;;;14.40;8.52;;;;;;;19.99;58.94;99894.25;5116233;28;20059;-75
2021/09/16 02:20:35;;;;;;;15.65;8.55;;;;;;;20.00;59.06;99897.81;5116076;28;20051;-75
2021/09/16 02:23:03;;;;;;;14.60;9.50;;;;;;;19.99;58.58;99896.09;5116170;28;20052;-75
2021/09/16 02:25:31;;;;;;;11.88;8.85;;;;;;;19.93;59.14;99892.19;5115862;28;20051;-75
2021/09/16 02:28:00;;;;;;;14.20;9.73;;;;;;;19.84;59.35;99895.84;5115889;28;20067;-75
2021/09/16 02:30:30;;;;;;;15.00;9.70;;;;;;;19.77;59.27;99896.63;5115279;28;20096;-77
2021/09/16 02:33:00;;;;;;;14.77;10.43;;;;;;;19.72;59.78;99895.28;5115738;28;20040;-77
2021/09/16 02:35:29;;;;;;;15.98;11.52;;;;;;;19.73;59.39;99896.13;5115687;28;20139;-78
2021/09/16 02:37:58;;;;;;;20.05;11.55;;;;;;;19.75;59.68;99893.25;5115820;28;20486;-78
2021/09/16 02:40:27;;;;;;;16.60;12.40;;;;;;;19.72;59.66;99884.44;5114861;28;20063;-79
2021/09/16 02:42:55;;;;;;;18.48;13.50;;;;;;;19.81;59.34;99893.47;5115515;28;20043;-77
2021/09/16 02:45:26;;;;;;;20.48;15.63;;;;;;;19.76;59.56;99894.94;5115288;28;20127;-77
2021/09/16 02:47:56;;;;;;;20.40;15.57;;;;;;;19.70;60.21;99896.44;5115807;28;20043;-77
2021/09/16 02:50:24;;;;;;;20.08;15.68;;;;;;;19.72;59.64;99897.97;5115442;28;20035;-76
2021/09/16 02:52:53;;;;;;;22.88;16.60;;;;;;;19.72;60.04;99900.69;5115453;28;20047;-77
2021/09/16 02:55:21;;;;;;;19.75;15.95;;;;;;;19.70;60.09;99891.88;5115105;28;20109;-77
2021/09/16 02:57:52;;;;;;;18.58;15.35;;;;;;;19.67;60.48;99894.03;5115532;28;20050;-77
2021/09/16 03:00:21;;;;;;;22.88;16.58;;;;;;;19.63;60.74;99895.38;5115218;28;20054;-77
2021/09/16 03:02:49;;;;;;;26.63;16.20;;;;;;;19.75;59.84;99887.84;5115522;28;20129;-78
2021/09/16 03:05:19;;;;;;;22.65;15.02;;;;;;;19.77;59.67;99881.25;5114928;28;20543;-80
2021/09/16 03:07:50;;;;;;;19.90;15.10;;;;;;;19.63;60.58;99892.69;5115244;28;20044;-79
2021/09/16 03:10:18;;;;;;;20.40;15.02;;;;;;;19.68;60.01;99887.63;5114761;28;20484;-80
2021/09/16 03:12:46;;;;;;;18.17;14.60;;;;;;;19.77;59.82;99891.22;5114950;28;20077;-80
2021/09/16 03:15:14;;;;;;;19.27;15.05;;;;;;;19.79;59.60;99895.50;5114906;28;20126;-80
2021/09/16 03:17:43;;;;;;;17.83;14.48;;;;;;;19.67;59.88;99877.81;5115033;28;20043;-80
2021/09/16 03:20:12;;;;;;;20.65;14.30;;;;;;;19.56;60.36;99878.94;5114522;28;20039;-80
2021/09/16 03:22:43;;;;;;;20.50;13.32;;;;;;;19.70;60.02;99880.22;5114646;28;20048;-79
2021/09/16 03:25:12;;;;;;;12.98;10.57;;;;;;;19.67;59.66;99880.50;5113745;28;20435;-82
2021/09/16 03:27:40;;;;;;;15.52;9.02;;;;;;;19.52;60.52;99882.09;5114527;28;20055;-79
2021/09/16 03:30:12;;;;;;;15.85;11.25;;;;;;;19.42;60.48;99872.22;5114480;28;20071;-78
2021/09/16 03:32:41;;;;;;;17.30;10.98;;;;;;;19.38;60.71;99878.09;5114723;28;20570;-77
2021/09/16 03:35:11;;;;;;;14.50;11.48;;;;;;;19.42;60.86;99872.22;5114541;28;20039;-77
2021/09/16 03:37:41;;;;;;;14.48;10.35;;;;;;;19.55;60.13;99881.75;5114945;28;20043;-76
2021/09/16 03:40:12;;;;;;;15.35;12.13;;;;;;;19.44;60.63;99878.31;5114736;28;20040;-79
2021/09/16 03:42:41;;;;;;;20.90;13.32;;;;;;;19.49;60.74;99876.97;5114799;28;20082;-80
2021/09/16 03:45:12;;;;;;;15.90;13.05;;;;;;;19.45;60.73;99877.31;5114607;28;20071;-79
2021/09/16 03:47:41;;;;;;;17.88;13.40;;;;;;;19.41;60.71;99873.22;5114443;28;20047;-78
2021/09/16 03:50:10;;;;;;;16.98;12.48;;;;;;;19.31;61.54;99864.38;5114118;28;20486;-79
2021/09/16 03:52:41;;;;;;;20.75;15.18;;;;;;;19.38;61.25;99872.69;5114948;28;20048;-79
2021/09/16 03:55:11;;;;;;;22.70;13.55;;;;;;;19.44;60.80;99872.91;5114185;28;20046;-79
2021/09/16 03:57:40;;;;;;;18.05;12.43;;;;;;;19.47;60.87;99879.00;5114090;28;20057;-79
2021/09/16 04:00:10;;;;;;;18.20;13.38;;;;;;;19.37;61.32;99871.81;5114219;28;20081;-79
2021/09/16 04:02:38;;;;;;;13.88;11.40;;;;;;;19.34;61.29;99872.16;5114063;28;20073;-81
2021/09/16 04:05:07;;;;;;;16.10;11.80;;;;;;;19.38;61.49;99868.09;5114258;28;20405;-81
2021/09/16 04:07:39;;;;;;;19.77;11.52;;;;;;;19.43;61.52;99862.25;5114016;28;20108;-81
2021/09/16 04:10:11;;;;;;;12.27;8.90;;;;;;;19.47;60.66;99865.47;5113965;28;20043;-80
2021/09/16 04:12:41;;;;;;;14.93;9.60;;;;;;;19.42;61.06;99850.59;5114028;28;20067;-79
2021/09/16 04:15:11;;;;;;;13.65;9.35;;;;;;;19.43;61.20;99848.72;5113804;28;20047;-76
2021/09/16 04:17:39;;;;;;;15.10;9.75;;;;;;;19.44;61.33;99853.97;5113985;28;20031;-79
2021/09/16 04:20:08;;;;;;;15.68;9.57;;;;;;;19.48;61.37;99859.91;5113857;28;20043;-78
2021/09/16 04:22:37;;;;;;;13.35;8.20;;;;;;;19.51;61.13;99856.03;5113484;28;20379;-79
2021/09/16 04:25:06;;;;;;;13.85;7.85;;;;;;;19.43;61.37;99852.28;5113785;28;20043;-78
2021/09/16 04:27:35;;;;;;;15.82;8.32;;;;;;;19.33;61.65;99854.22;5112808;28;20101;-78
2021/09/16 04:30:06;;;;;;;16.40;9.52;;;;;;;19.29;62.22;99855.53;5113521;28;20548;-78
2021/09/16 04:32:37;;;;;;;13.30;9.10;;;;;;;19.29;62.26;99858.25;5113565;28;20040;-78
2021/09/16 04:35:07;;;;;;;14.20;8.98;;;;;;;19.27;62.74;99854.00;5113601;28;20040;-78
2021/09/16 04:37:37;;;;;;;14.10;9.50;;;;;;;19.33;62.52;99859.63;5113204;28;20043;-76
2021/09/16 04:40:07;;;;;;;18.50;9.38;;;;;;;19.44;62.60;99864.78;5113163;28;20101;-76
2021/09/16 04:42:38;;;;;;;13.75;8.73;;;;;;;19.45;62.92;99871.88;5112915;28;20039;-77
2021/09/16 04:45:09;;;;;;;13.48;8.65;;;;;;;19.24;63.60;99868.69;5113296;28;20048;-75
2021/09/16 04:47:39;;;;;;;21.48;9.50;;;;;;;19.16;64.28;99865.91;5113144;28;20048;-78
2021/09/16 04:50:10;;;;;;;15.98;10.18;;;;;;;19.06;64.62;99871.41;5094804;28;20127;-78
2021/09/16 04:52:39;;;;;;;18.70;10.07;;;;;;;19.04;65.00;99889.66;5112779;28;20052;-78
2021/09/16 04:55:08;;;;;;;20.55;10.70;;;;;;;18.99;65.48;99886.53;5113264;28;20039;-71
2021/09/16 04:57:37;;;;;;;13.38;9.90;;;;;;;19.07;65.16;99888.47;5112775;28;20067;-71
2021/09/16 05:00:08;;;;;;;15.20;8.95;;;;;;;19.03;65.11;99893.34;5113348;28;20043;-75
2021/09/16 05:02:38;;;;;;;;;;;;;;;19.04;65.79;99899.63;5094999;28;20105;-74
2021/09/16 05:05:10;;;;;;;16.45;9.68;;;;;;;19.04;65.71;99905.03;5113151;28;19974;-74
2021/09/16 05:07:38;;;;;;;17.65;10.35;;;;;;;19.05;66.03;99901.31;5112322;28;20491;-74
2021/09/16 05:10:08;;;;;;;19.08;10.77;;;;;;;19.16;65.78;99901.06;5112947;28;20517;-74
2021/09/16 05:12:36;;;;;;;15.23;9.55;;;;;;;19.41;64.21;99897.56;5112375;28;20047;-75
2021/09/16 05:15:12;;;;;;;13.45;9.43;;;;;;;19.60;63.30;99885.72;5113014;28;20050;-71
2021/09/16 05:17:41;;;;;;;18.43;9.87;;;;;;;19.51;64.28;99897.47;5112832;28;20069;-74
2021/09/16 05:20:10;;;;;;;20.13;10.05;;;;;;;19.40;64.95;99890.47;5112944;28;20276;-77
2021/09/16 05:22:38;;;;;;;15.02;10.98;;;;;;;19.24;66.28;99895.72;5112693;28;20116;-78
2021/09/16 05:25:06;;;;;;;15.65;10.48;;;;;;;19.41;65.62;99897.56;5113021;28;20044;-78
2021/09/16 05:27:37;;;;;;;18.33;10.60;;;;;;;19.28;66.31;99891.69;5112183;28;20052;-74
2021/09/16 05:30:06;;;;;;;16.50;10.70;;;;;;;19.25;66.31;99894.72;5112787;28;20043;-74
2021/09/16 05:32:37;;;;;;;19.88;10.80;;;;;;;19.39;66.08;99893.31;5112355;28;20039;-72
2021/09/16 05:35:06;;;;;;;20.75;11.23;;;;;;;19.41;66.32;99889.44;5112720;28;20043;-75
2021/09/16 05:37:34;;;;;;;18.58;10.90;;;;;;;19.60;66.30;99893.00;5111940;28;20053;-75
2021/09/16 05:40:05;;;;;;;16.60;11.48;;;;;;;19.60;66.94;99890.28;5112333;28;20486;-78
2021/09/16 05:42:36;;;;;;;21.20;12.18;;;;;;;19.49;67.66;99898.59;5111716;28;20071;-79
2021/09/16 05:45:09;;;;;;;20.67;12.23;;;;;;;19.65;67.76;99894.19;5112413;28;20127;-71
2021/09/16 05:47:38;;;;;;;23.92;12.07;;;;;;;19.76;67.61;99894.94;5112442;28;20147;-71
2021/09/16 05:50:07;;;;;;;18.38;12.18;;;;;;;19.98;66.55;99894.41;5115997;28;20055;-74
2021/09/16 05:52:35;;;;;;;19.83;12.00;;;;;;;19.98;66.48;99895.25;5114919;28;20469;-75
2021/09/16 05:55:09;;;;;;;21.83;12.00;;;;;;;20.00;65.83;99895.09;5115328;28;20047;-75
2021/09/16 05:57:37;;;;;;;23.38;11.70;;;;;;;20.01;66.21;99894.94;5115950;28;20047;-73
2021/09/16 06:00:09;;;;;;;17.88;11.25;;;;;;;20.00;64.72;99895.94;5116101;28;20482;-73
2021/09/16 06:02:38;;;;;;;23.77;12.48;;;;;;;20.16;65.55;99903.28;5115788;28;20168;-72
2021/09/16 06:05:09;;;;;;;21.50;11.75;;;;;;;20.20;64.86;99898.41;5116221;28;20122;-69
2021/09/16 06:07:43;;;;;;;19.73;12.23;;;;;;;20.19;64.96;99902.97;5114120;28;20490;-70
2021/09/16 06:10:14;;;;;;;16.00;10.98;;;;;;;20.37;63.40;99911.00;5112582;28;20543;-70
2021/09/16 06:12:43;;;;;;;25.25;11.20;;;;;;;20.40;62.98;99910.66;5118487;28;20486;-70
2021/09/16 06:15:12;;;;;;;16.90;9.88;;;;;;;20.79;61.96;99905.56;5115591;28;20501;-72
2021/09/16 06:17:42;;;;;;;20.45;10.90;;;;;;;20.73;60.92;99898.09;5111589;28;20039;-73
2021/09/16 06:20:11;;;;;;;19.35;10.88;;;;;;;20.72;61.25;99896.41;5115373;28;20482;-73
2021/09/16 06:22:46;;;;;;;21.23;10.63;;;;;;;20.81;60.73;99892.69;5116073;28;20391;-73
2021/09/16 06:25:17;;;;;;;17.95;10.98;;;;;;;20.70;61.76;99894.88;5115846;28;20047;-72
2021/09/16 06:27:48;;;;;;;21.20;11.35;;;;;;;20.95;60.87;99898.50;5115846;28;20052;-73
2021/09/16 06:30:20;;;;;;;19.80;11.73;;;;;;;21.03;60.29;99893.06;5115564;28;20058;-74
2021/09/16 06:32:50;;;;;;;17.08;10.15;;;;;;;21.01;59.83;99898.66;5097169;28;20051;-74
2021/09/16 06:35:22;;;;;;;17.58;10.57;;;;;;;21.09;59.68;99889.69;5115384;28;20043;-71
2021/09/16 06:37:50;;;;;;;21.55;11.10;;;;;;;21.40;58.30;99892.59;5115294;28;20044;-71
2021/09/16 06:40:20;;;;;;;20.45;10.38;;;;;;;21.46;58.00;99891.91;5115332;28;20481;-78
2021/09/16 06:42:51;;;;;;;18.17;9.88;;;;;;;21.47;57.52;99888.19;5115415;28;20054;-79
2021/09/16 06:45:22;;;;;;;18.35;10.20;;;;;;;21.63;57.03;99888.16;5115351;28;20046;-68
2021/09/16 06:47:52;;;;;;;16.77;9.77;;;;;;;22.04;55.45;99890.78;5115217;28;20126;-71
2021/09/16 06:50:20;;;;;;;18.38;9.80;;;;;;;22.34;54.74;99880.16;5115347;28;20498;-74
2021/09/16 06:52:48;;;;;;;13.27;9.80;;;;;;;22.30;53.77;99893.25;5114843;28;20092;-73
2021/09/16 06:55:16;;;;;;;15.15;9.85;;;;;;;22.33;53.88;99894.78;5115245;28;20063;-75
2021/09/16 06:57:45;;;;;;;14.52;9.07;;;;;;;22.37;53.99;99890.66;5115182;28;20049;-73
2021/09/16 07:00:15;;;;;;;14.38;8.93;;;;;;;22.48;53.04;99898.41;5113649;28;20043;-74
2021/09/16 07:02:49;;;;;;;21.50;10.50;;;;;;;22.44;52.97;99897.09;5115070;28;20043;-74
2021/09/16 07:05:20;;;;;;;16.15;8.60;;;;;;;22.47;52.41;99891.28;5114661;28;20055;-74
2021/09/16 07:07:48;;;;;;;12.02;7.57;;;;;;;22.53;51.65;99894.16;5114334;28;20101;-74
2021/09/16 07:10:16;;;;;;;10.98;8.02;;;;;;;22.33;52.91;99905.63;5114254;28;20040;-75
2021/09/16 07:12:44;;;;;;;12.88;8.05;;;;;;;22.42;52.51;99905.44;5114357;28;20414;-74
2021/09/16 07:15:15;;;;;;;15.60;8.18;;;;;;;22.36;52.31;99913.44;5114229;28;20048;-75
2021/09/16 07:17:43;;;;;;;12.23;7.82;;;;;;;22.42;52.48;99915.44;5113677;28;20065;-78
2021/09/16 07:20:13;;;;;;;11.05;8.10;;;;;;;22.49;52.38;99916.44;5112101;28;20044;-78
2021/09/16 07:22:43;;;;;;;14.52;8.15;;;;;;;22.50;51.82;99915.41;5112775;28;20039;-77
2021/09/16 07:25:12;;;;;;;14.40;7.75;;;;;;;22.46;52.67;99919.50;5112788;28;20060;-75
2021/09/16 07:27:40;;;;;;;12.63;7.55;;;;;;;22.50;52.59;99929.00;5114110;28;20490;-87
2021/09/16 07:30:10;;;;;;;14.70;7.38;;;;;;;22.56;52.44;99933.72;5110132;28;20051;-77
2021/09/16 07:32:39;;;;;;;13.23;7.05;;;;;;;22.66;51.76;99938.94;5095831;28;20051;-77
2021/09/16 07:35:10;;;;;;;12.07;7.20;;;;;;;22.90;50.92;99938.84;5114216;28;20146;-74
2021/09/16 07:37:41;;;;;;;13.15;7.40;;;;;;;22.94;50.62;99942.03;5114149;28;20795;-74
2021/09/16 07:40:13;;;;;;;11.18;7.20;;;;;;;22.89;50.87;99944.47;5114339;28;20501;-75
2021/09/16 07:42:42;;;;;;;10.50;7.30;;;;;;;22.97;50.92;99941.69;5114412;28;20442;-74
2021/09/16 07:45:11;;;;;;;10.65;7.38;;;;;;;23.01;49.80;99941.16;5114297;28;20043;-73
2021/09/16 07:47:39;;;;;;;12.45;8.02;;;;;;;22.83;50.60;99940.56;5113945;28;20489;-75
2021/09/16 07:50:08;;;;;;;16.00;7.72;;;;;;;22.94;50.03;99945.59;5114171;28;20039;-79
2021/09/16 07:52:36;;;;;;;13.27;7.45;;;;;;;22.96;49.90;99949.00;5114270;28;20092;-74
2021/09/16 07:55:05;;;;;;;13.63;7.65;;;;;;;23.01;49.36;99948.47;5114154;28;20051;-78
2021/09/16 07:57:35;;;;;;;11.35;7.15;;;;;;;22.96;49.36;99940.81;5113862;28;20074;-78
2021/09/16 08:00:05;;;;;;;10.98;7.72;;;;;;;23.04;49.80;99945.38;5113809;28;20067;-78
2021/09/16 08:02:33;;;;;;;15.23;8.00;;;;;;;23.10;49.66;99944.66;5114236;28;20051;-77
2021/09/16 08:05:02;;;;;;;12.55;7.65;;;;;;;23.30;49.23;99931.44;5113931;28;20044;-77
2021/09/16 08:07:33;;;;;;;17.00;8.77;;;;;;;23.34;48.90;99932.75;5113716;28;20428;-77
2021/09/16 08:10:01;;;;;;;13.93;8.02;;;;;;;23.42;47.80;99936.25;5113591;28;20050;-80
2021/09/16 08:12:30;;;;;;;10.52;7.30;;;;;;;23.40;48.04;99937.47;5112782;28;20046;-75
2021/09/16 08:15:01;;;;;;;15.13;7.45;;;;;;;23.49;48.27;99924.63;5113328;28;20048;-75
2021/09/16 08:17:35;;;;;;;11.77;7.20;;;;;;;23.45;48.71;99924.19;5113557;28;20477;-75
2021/09/16 08:20:07;;;;;;;11.98;7.57;;;;;;;23.34;48.57;99922.69;5113099;28;20083;-75
2021/09/16 08:22:36;;;;;;;12.57;6.85;;;;;;;23.42;49.00;99930.81;5113808;28;20047;-76
2021/09/16 08:25:05;;;;;;;14.18;7.60;;;;;;;23.48;48.51;99931.13;5113311;28;20063;-75
2021/09/16 08:27:35;;;;;;;13.48;8.18;;;;;;;23.34;48.87;99922.69;5113460;28;20443;-75
2021/09/16 08:30:07;;;;;;;12.68;7.00;;;;;;;23.35;48.95;99929.84;5113259;28;20048;-75
2021/09/16 08:32:35;;;;;;;15.25;7.43;;;;;;;23.54;49.05;99938.53;5113533;28;20122;-75
2021/09/16 08:35:03;;;;;;;12.00;7.63;;;;;;;23.79;48.50;99931.88;5095210;28;20482;-75
2021/09/16 08:37:32;;;;;;;17.13;9.68;;;;;;;23.80;48.29;99928.13;5112386;28;20070;-75
2021/09/16 08:40:02;;;;;;;12.90;7.60;;;;;;;23.85;48.11;99928.41;5112747;28;20461;-75
2021/09/16 08:42:31;;;;;;;14.63;7.15;;;;;;;23.91;48.34;99918.63;5112768;28;20074;-72
2021/09/16 08:44:59;;;;;;;13.20;6.80;;;;;;;24.07;47.92;99923.06;5112667;28;20046;-77
2021/09/16 08:47:30;;;;;;;11.27;6.20;;;;;;;24.11;47.11;99921.66;5112477;28;20067;-71
2021/09/16 08:49:59;;;;;;;11.95;6.57;;;;;;;24.04;47.46;99924.31;5112276;28;20100;-75
2021/09/16 08:52:27;;;;;;;10.90;6.28;;;;;;;24.17;47.57;99918.19;5112133;28;20436;-79
2021/09/16 08:54:58;;;;;;;11.30;6.28;;;;;;;24.23;47.21;99925.63;5111889;28;20051;-75
2021/09/16 08:57:27;;;;;;;10.95;6.85;;;;;;;24.27;47.22;99932.38;5111593;28;20044;-76
2021/09/16 08:59:55;;;;;;;11.23;7.40;;;;;;;24.40;47.20;99921.66;5111337;28;20039;-76
2021/09/16 09:02:23;;;;;;;10.15;6.85;;;;;;;24.50;46.87;99924.09;5112000;28;20105;-74
2021/09/16 09:04:53;;;;;;;13.20;7.30;;;;;;;24.58;46.36;99921.28;5112019;28;20047;-74
2021/09/16 09:07:21;;;;;;;9.55;6.97;;;;;;;24.72;46.02;99914.97;5112446;28;20039;-75
2021/09/16 09:09:49;;;;;;;13.77;7.20;;;;;;;24.81;45.66;99911.09;5112227;28;20046;-74
2021/09/16 09:12:18;;;;;;;9.32;6.50;;;;;;;24.85;45.77;99911.53;5112863;28;20187;-75
2021/09/16 09:14:48;;;;;;;10.57;6.85;;;;;;;25.06;45.39;99913.47;5094179;28;20047;-73
2021/09/16 09:17:19;;;;;;;12.02;7.00;;;;;;;25.16;44.79;99918.59;5112747;28;20050;-74
2021/09/16 09:19:48;;;;;;;10.98;6.85;;;;;;;25.15;45.26;99909.56;5094671;28;20047;-73
2021/09/16 09:22:19;;;;;;;14.07;7.15;;;;;;;25.21;45.10;99910.69;5112705;28;20398;-73
2021/09/16 09:24:48;;;;;;;12.05;7.03;;;;;;;25.25;44.66;99901.91;5116819;28;20119;-73
2021/09/16 09:27:22;;;;;;;10.18;7.25;;;;;;;25.07;44.86;99902.34;5116775;28;20431;-73
2021/09/16 09:30:09;;;;;;;9.00;6.75;;;;;;;24.96;45.60;99913.75;5116922;28;20557;-74
2021/09/16 09:32:53;;;;;;;15.63;6.82;;;;;;;25.11;45.63;99921.94;5116865;28;20043;-75
2021/09/16 09:35:40;;;;;;;12.15;7.55;;;;;;;25.14;45.56;99917.97;5116999;28;20546;-80
2021/09/16 09:38:18;;;;;;;11.30;6.88;;;;;;;25.25;45.10;99903.78;5116153;28;20150;-76
2021/09/16 09:40:48;;;;;;;10.38;6.68;;;;;;;25.26;45.19;99914.50;5116662;28;20168;-74
2021/09/16 09:43:26;;;;;;;11.60;6.72;;;;;;;25.33;45.08;99909.13;5116475;28;20051;-75
2021/09/16 09:46:03;;;;;;;11.60;7.03;;;;;;;25.43;44.54;99909.63;5116616;28;20062;-82
2021/09/16 09:48:33;;;;;;;11.13;7.22;;;;;;;25.52;44.05;99910.34;5116559;28;20048;-76
2021/09/16 09:51:02;;;;;;;7.82;6.57;;;;;;;25.41;44.48;99906.25;5116225;28;20100;-74
2021/09/16 09:53:37;;;;;;;10.32;7.00;;;;;;;25.43;44.56;99900.59;5116276;28;20122;-74
2021/09/16 09:56:16;;;;;;;10.05;7.43;;;;;;;25.59;44.67;99903.88;5116832;28;20442;-74
2021/09/16 09:58:45;;;;;;;10.43;7.15;;;;;;;25.78;43.96;99896.94;5119000;28;20472;-72
2021/09/16 10:01:28;;;;;;;12.02;7.68;;;;;;;25.90;43.58;99889.00;5116124;28;20363;-73
2021/09/16 10:03:57;;;;;;;11.63;7.18;;;;;;;25.95;43.49;99891.97;5116400;28;20168;-73
2021/09/16 10:06:43;;;;;;;13.02;7.05;;;;;;;26.02;43.45;99884.66;5116132;28;20043;-75
2021/09/16 10:09:14;;;;;;;12.18;7.43;;;;;;;26.04;42.93;99888.03;5114856;28;20047;-75
2021/09/16 10:11:45;;;;;;;10.25;7.20;;;;;;;26.05;43.09;99886.97;5115474;28;20044;-71
2021/09/16 10:14:15;;;;;;;11.48;7.10;;;;;;;25.87;43.55;99884.81;5115486;28;20493;-71
2021/09/16 10:16:43;;;;;;;13.43;6.90;;;;;;;25.97;43.56;99889.91;5115970;28;20096;-81
2021/09/16 10:19:12;;;;;;;13.70;7.68;;;;;;;26.07;43.40;99895.84;5114486;28;20088;-75
2021/09/16 10:21:41;;;;;;;14.07;7.55;;;;;;;26.10;43.91;99895.44;5114468;28;20387;-73
2021/09/16 10:24:16;;;;;;;14.25;7.75;;;;;;;26.29;43.38;99898.47;5114072;28;20047;-82
2021/09/16 10:26:47;;;;;;;10.60;7.60;;;;;;;26.50;43.02;99895.66;5114580;28;20059;-81
2021/09/16 10:29:37;;;;;;;12.85;7.20;;;;;;;26.83;42.64;99895.78;5114327;28;20125;-77
2021/09/16 10:32:36;;;;;;;11.30;7.07;;;;;;;26.99;41.37;99884.44;5114130;28;20044;-71
2021/09/16 10:35:20;;;;;;;11.30;7.22;;;;;;;26.89;41.62;99875.78;5114314;28;20066;-73
2021/09/16 10:37:50;;;;;;;11.75;6.97;;;;;;;26.66;42.06;99878.91;5114351;28;20409;-74
2021/09/16 10:40:26;;;;;;;16.00;7.80;;;;;;;26.80;42.06;99869.66;5114269;28;20078;-75
2021/09/16 10:42:55;;;;;;;12.85;8.07;;;;;;;26.52;42.38;99872.53;5114781;28;20135;-79
2021/09/16 10:45:36;;;;;;;14.05;7.72;;;;;;;26.47;42.39;99872.31;5114845;28;20486;-80
2021/09/16 10:48:29;;;;;;;13.70;7.70;;;;;;;26.35;42.32;99867.59;5115101;28;20036;-75
2021/09/16 10:51:02;;;;;;;12.35;7.45;;;;;;;26.29;42.53;99876.63;5105625;28;20056;-79
2021/09/16 10:53:36;;;;;;;12.10;7.60;;;;;;;26.37;42.40;99881.91;5114455;28;20044;-82
2021/09/16 10:56:26;;;;;;;13.57;7.80;;;;;;;26.35;42.87;99889.47;5114937;28;20040;-79
2021/09/16 10:58:57;;;;;;;12.95;7.80;;;;;;;26.35;42.89;99894.94;5096361;28;20058;-79
2021/09/16 11:01:56;;;;;;;13.27;7.18;;;;;;;26.30;43.29;99894.69;5114699;28;20042;-78
2021/09/16 11:04:26;;;;;;;11.90;7.32;;;;;;;26.51;42.45;99887.25;5107883;28;20112;-75
2021/09/16 11:06:54;;;;;;;10.23;7.20;;;;;;;26.68;41.79;99893.22;5114744;28;20050;-73
2021/09/16 11:09:28;;;;;;;13.32;7.60;;;;;;;26.90;41.20;99890.31;5114126;28;20039;-75
2021/09/16 11:12:01;;;;;;;10.77;7.13;;;;;;;26.87;41.43;99880.63;5114857;28;20043;-76
2021/09/16 11:14:35;;;;;;;9.15;6.43;;;;;;;26.90;41.78;99884.84;5114584;28;20405;-76
2021/09/16 11:17:06;;;;;;;13.52;6.90;;;;;;;27.07;41.44;99886.19;5114964;28;20044;-81
2021/09/16 11:19:44;;;;;;;14.43;7.18;;;;;;;27.14;41.33;99876.09;5114393;28;20494;-77
2021/09/16 11:22:13;;;;;;;10.80;7.20;;;;;;;27.27;41.61;99876.09;5113902;28;20044;-74
2021/09/16 11:24:43;;;;;;;9.48;7.53;;;;;;;27.13;41.33;99874.41;5114689;28;20051;-75
2021/09/16 11:27:24;;;;;;;12.38;7.28;;;;;;;27.03;41.13;99876.72;5114786;28;20071;-77
2021/09/16 11:29:53;;;;;;;15.85;7.70;;;;;;;26.99;41.62;99889.06;5114234;28;20508;-74
2021/09/16 11:32:21;;;;;;;11.05;7.20;;;;;;;26.99;41.68;99881.72;5114526;28;20122;-75
2021/09/16 11:34:56;;;;;;;11.32;7.55;;;;;;;26.90;41.79;99882.94;5114214;28;20043;-78
2021/09/16 11:37:30;;;;;;;14.10;8.23;;;;;;;26.76;42.41;99868.41;5114530;28;20447;-78